sensor_id;sensor_type;location;lat;lon;timestamp;P1;durP1;ratioP1;P2;durP2;ratioP2
5191;SDS011;2615;44.524;11.284;2022-07-06T00:01:19;14.20;;;8.80;;
5191;SDS011;2615;44.524;11.284;2022-07-06T00:03:48;12.40;;;8.90;;
5191;SDS011;2615;44.524;11.284;2022-07-06T00:06:21;11.23;;;8.57;;
5191;SDS011;2615;44.524;11.284;2022-07-06T00:08:50;15.00;;;9.33;;
5191;SDS011;2615;44.524;11.284;2022-07-06T00:11:20;14.83;;;8.90;;
5191;SDS011;2615;44.524;11.284;2022-07-06T00:13:48;10.73;;;9.63;;
5191;SDS011;2615;44.524;11.284;2022-07-06T00:16:18;13.90;;;9.50;;
5191;SDS011;2615;44.524;11.284;2022-07-06T00:18:47;13.90;;;10.30;;
5191;SDS011;2615;44.524;11.284;2022-07-06T00:21:15;13.10;;;10.53;;
5191;SDS011;2615;44.524;11.284;2022-07-06T00:23:44;15.37;;;12.60;;
5191;SDS011;2615;44.524;11.284;2022-07-06T00:26:12;14.67;;;12.50;;
5191;SDS011;2615;44.524;11.284;2022-07-06T00:28:42;15.10;;;12.03;;
5191;SDS011;2615;44.524;11.284;2022-07-06T00:31:11;19.10;;;11.83;;
5191;SDS011;2615;44.524;11.284;2022-07-06T00:33:39;15.07;;;12.53;;
5191;SDS011;2615;44.524;11.284;2022-07-06T00:36:08;14.13;;;11.57;;
5191;SDS011;2615;44.524;11.284;2022-07-06T00:38:36;16.13;;;12.47;;
5191;SDS011;2615;44.524;11.284;2022-07-06T00:41:05;16.13;;;12.80;;
5191;SDS011;2615;44.524;11.284;2022-07-06T00:43:50;18.90;;;11.97;;
5191;SDS011;2615;44.524;11.284;2022-07-06T00:46:23;15.57;;;11.93;;
5191;SDS011;2615;44.524;11.284;2022-07-06T00:48:55;16.67;;;11.53;;
5191;SDS011;2615;44.524;11.284;2022-07-06T00:51:25;15.20;;;11.10;;
5191;SDS011;2615;44.524;11.284;2022-07-06T00:53:58;14.50;;;10.13;;
5191;SDS011;2615;44.524;11.284;2022-07-06T00:56:28;10.77;;;8.60;;
5191;SDS011;2615;44.524;11.284;2022-07-06T00:59:00;11.73;;;8.13;;
5191;SDS011;2615;44.524;11.284;2022-07-06T01:01:29;12.20;;;8.10;;
5191;SDS011;2615;44.524;11.284;2022-07-06T01:03:58;11.87;;;8.27;;
5191;SDS011;2615;44.524;11.284;2022-07-06T01:06:26;13.70;;;8.97;;
5191;SDS011;2615;44.524;11.284;2022-07-06T01:08:55;12.33;;;7.47;;
5191;SDS011;2615;44.524;11.284;2022-07-06T01:11:23;8.37;;;7.30;;
5191;SDS011;2615;44.524;11.284;2022-07-06T01:13:52;10.23;;;6.97;;
5191;SDS011;2615;44.524;11.284;2022-07-06T01:16:23;7.87;;;6.87;;
5191;SDS011;2615;44.524;11.284;2022-07-06T01:18:51;7.80;;;6.20;;
5191;SDS011;2615;44.524;11.284;2022-07-06T01:21:21;8.40;;;6.47;;
5191;SDS011;2615;44.524;11.284;2022-07-06T01:23:49;12.33;;;5.97;;
5191;SDS011;2615;44.524;11.284;2022-07-06T01:26:18;9.30;;;5.00;;
5191;SDS011;2615;44.524;11.284;2022-07-06T01:28:48;6.03;;;5.03;;
5191;SDS011;2615;44.524;11.284;2022-07-06T01:31:19;8.27;;;5.33;;
5191;SDS011;2615;44.524;11.284;2022-07-06T01:33:49;6.83;;;5.33;;
5191;SDS011;2615;44.524;11.284;2022-07-06T01:36:18;9.07;;;4.67;;
5191;SDS011;2615;44.524;11.284;2022-07-06T01:38:48;6.43;;;4.17;;
5191;SDS011;2615;44.524;11.284;2022-07-06T01:41:17;7.77;;;4.70;;
5191;SDS011;2615;44.524;11.284;2022-07-06T01:43:46;7.90;;;5.73;;
5191;SDS011;2615;44.524;11.284;2022-07-06T01:46:14;10.13;;;4.90;;
5191;SDS011;2615;44.524;11.284;2022-07-06T01:48:43;7.73;;;4.50;;
5191;SDS011;2615;44.524;11.284;2022-07-06T01:51:12;7.23;;;3.90;;
5191;SDS011;2615;44.524;11.284;2022-07-06T01:53:40;6.17;;;4.40;;
5191;SDS011;2615;44.524;11.284;2022-07-06T01:56:09;6.43;;;4.57;;
5191;SDS011;2615;44.524;11.284;2022-07-06T01:58:38;5.70;;;4.50;;
5191;SDS011;2615;44.524;11.284;2022-07-06T02:01:07;7.27;;;4.67;;
5191;SDS011;2615;44.524;11.284;2022-07-06T02:03:36;4.70;;;4.10;;
5191;SDS011;2615;44.524;11.284;2022-07-06T02:06:05;8.13;;;3.90;;
5191;SDS011;2615;44.524;11.284;2022-07-06T02:08:34;6.30;;;4.00;;
5191;SDS011;2615;44.524;11.284;2022-07-06T02:11:03;5.13;;;4.37;;
5191;SDS011;2615;44.524;11.284;2022-07-06T02:13:34;6.30;;;4.23;;
5191;SDS011;2615;44.524;11.284;2022-07-06T02:16:03;5.60;;;4.30;;
5191;SDS011;2615;44.524;11.284;2022-07-06T02:18:31;7.07;;;4.20;;
5191;SDS011;2615;44.524;11.284;2022-07-06T02:21:00;4.60;;;3.77;;
5191;SDS011;2615;44.524;11.284;2022-07-06T02:23:28;6.20;;;3.90;;
5191;SDS011;2615;44.524;11.284;2022-07-06T02:25:56;7.37;;;3.87;;
5191;SDS011;2615;44.524;11.284;2022-07-06T02:28:24;9.83;;;4.40;;
5191;SDS011;2615;44.524;11.284;2022-07-06T02:30:54;5.63;;;3.50;;
5191;SDS011;2615;44.524;11.284;2022-07-06T02:33:23;4.80;;;3.97;;
5191;SDS011;2615;44.524;11.284;2022-07-06T02:35:51;7.07;;;4.00;;
5191;SDS011;2615;44.524;11.284;2022-07-06T02:38:19;12.00;;;3.93;;
5191;SDS011;2615;44.524;11.284;2022-07-06T02:40:48;5.90;;;4.13;;
5191;SDS011;2615;44.524;11.284;2022-07-06T02:43:16;5.73;;;3.83;;
5191;SDS011;2615;44.524;11.284;2022-07-06T02:45:44;15.77;;;4.60;;
5191;SDS011;2615;44.524;11.284;2022-07-06T02:48:14;8.47;;;4.20;;
5191;SDS011;2615;44.524;11.284;2022-07-06T02:50:42;4.50;;;4.00;;
5191;SDS011;2615;44.524;11.284;2022-07-06T02:53:10;7.20;;;4.40;;
5191;SDS011;2615;44.524;11.284;2022-07-06T02:55:38;16.60;;;3.67;;
5191;SDS011;2615;44.524;11.284;2022-07-06T02:58:07;11.93;;;4.40;;
5191;SDS011;2615;44.524;11.284;2022-07-06T03:00:35;7.47;;;4.80;;
5191;SDS011;2615;44.524;11.284;2022-07-06T03:03:03;6.23;;;3.73;;
5191;SDS011;2615;44.524;11.284;2022-07-06T03:05:32;10.10;;;4.10;;
5191;SDS011;2615;44.524;11.284;2022-07-06T03:08:01;8.80;;;4.33;;
5191;SDS011;2615;44.524;11.284;2022-07-06T03:10:29;5.43;;;4.10;;
5191;SDS011;2615;44.524;11.284;2022-07-06T03:12:57;8.60;;;4.23;;
5191;SDS011;2615;44.524;11.284;2022-07-06T03:15:25;9.40;;;5.67;;
5191;SDS011;2615;44.524;11.284;2022-07-06T03:17:53;6.63;;;4.07;;
5191;SDS011;2615;44.524;11.284;2022-07-06T03:20:21;6.83;;;3.80;;
5191;SDS011;2615;44.524;11.284;2022-07-06T03:22:51;6.60;;;4.43;;
5191;SDS011;2615;44.524;11.284;2022-07-06T03:25:19;9.27;;;3.83;;
5191;SDS011;2615;44.524;11.284;2022-07-06T03:27:48;11.03;;;3.57;;
5191;SDS011;2615;44.524;11.284;2022-07-06T03:30:16;7.70;;;4.60;;
5191;SDS011;2615;44.524;11.284;2022-07-06T03:32:44;5.90;;;3.80;;
5191;SDS011;2615;44.524;11.284;2022-07-06T03:35:12;10.10;;;4.30;;
5191;SDS011;2615;44.524;11.284;2022-07-06T03:37:40;10.13;;;4.20;;
5191;SDS011;2615;44.524;11.284;2022-07-06T03:40:11;4.97;;;3.40;;
5191;SDS011;2615;44.524;11.284;2022-07-06T03:42:40;11.07;;;3.50;;
5191;SDS011;2615;44.524;11.284;2022-07-06T03:45:08;9.20;;;3.33;;
5191;SDS011;2615;44.524;11.284;2022-07-06T03:47:37;8.63;;;3.90;;
5191;SDS011;2615;44.524;11.284;2022-07-06T03:50:07;8.33;;;3.37;;
5191;SDS011;2615;44.524;11.284;2022-07-06T03:52:35;11.50;;;3.20;;
5191;SDS011;2615;44.524;11.284;2022-07-06T03:55:07;6.93;;;2.97;;
5191;SDS011;2615;44.524;11.284;2022-07-06T03:57:38;8.70;;;2.83;;
5191;SDS011;2615;44.524;11.284;2022-07-06T04:00:08;6.10;;;3.10;;
5191;SDS011;2615;44.524;11.284;2022-07-06T04:02:37;6.10;;;2.63;;
5191;SDS011;2615;44.524;11.284;2022-07-06T04:05:05;4.33;;;2.87;;
5191;SDS011;2615;44.524;11.284;2022-07-06T04:07:34;4.47;;;2.43;;
5191;SDS011;2615;44.524;11.284;2022-07-06T04:10:02;7.73;;;2.80;;
5191;SDS011;2615;44.524;11.284;2022-07-06T04:12:31;5.23;;;2.30;;
5191;SDS011;2615;44.524;11.284;2022-07-06T04:15:09;6.93;;;3.03;;
5191;SDS011;2615;44.524;11.284;2022-07-06T04:17:38;4.23;;;2.90;;
5191;SDS011;2615;44.524;11.284;2022-07-06T04:20:23;4.20;;;3.10;;
5191;SDS011;2615;44.524;11.284;2022-07-06T04:22:52;4.30;;;2.20;;
5191;SDS011;2615;44.524;11.284;2022-07-06T04:25:20;6.30;;;3.23;;
5191;SDS011;2615;44.524;11.284;2022-07-06T04:27:48;2.83;;;2.50;;
5191;SDS011;2615;44.524;11.284;2022-07-06T04:30:18;5.10;;;3.10;;
5191;SDS011;2615;44.524;11.284;2022-07-06T04:32:46;6.07;;;2.73;;
5191;SDS011;2615;44.524;11.284;2022-07-06T04:35:14;8.07;;;2.77;;
5191;SDS011;2615;44.524;11.284;2022-07-06T04:37:42;4.40;;;2.90;;
5191;SDS011;2615;44.524;11.284;2022-07-06T04:40:12;8.80;;;3.27;;
5191;SDS011;2615;44.524;11.284;2022-07-06T04:42:44;7.20;;;3.47;;
5191;SDS011;2615;44.524;11.284;2022-07-06T04:45:12;3.63;;;2.60;;
5191;SDS011;2615;44.524;11.284;2022-07-06T04:47:42;7.87;;;2.37;;
5191;SDS011;2615;44.524;11.284;2022-07-06T04:50:10;4.27;;;2.60;;
5191;SDS011;2615;44.524;11.284;2022-07-06T04:52:40;5.83;;;3.07;;
5191;SDS011;2615;44.524;11.284;2022-07-06T04:55:08;4.80;;;2.33;;
5191;SDS011;2615;44.524;11.284;2022-07-06T04:57:37;4.53;;;2.80;;
5191;SDS011;2615;44.524;11.284;2022-07-06T05:00:05;3.90;;;2.77;;
5191;SDS011;2615;44.524;11.284;2022-07-06T05:02:35;6.70;;;2.60;;
5191;SDS011;2615;44.524;11.284;2022-07-06T05:05:05;8.70;;;3.90;;
5191;SDS011;2615;44.524;11.284;2022-07-06T05:07:35;6.87;;;3.17;;
5191;SDS011;2615;44.524;11.284;2022-07-06T05:10:06;6.37;;;2.57;;
5191;SDS011;2615;44.524;11.284;2022-07-06T05:12:36;5.83;;;3.17;;
5191;SDS011;2615;44.524;11.284;2022-07-06T05:15:05;5.47;;;2.60;;
5191;SDS011;2615;44.524;11.284;2022-07-06T05:17:34;4.63;;;2.57;;
5191;SDS011;2615;44.524;11.284;2022-07-06T05:20:02;3.63;;;2.40;;
5191;SDS011;2615;44.524;11.284;2022-07-06T05:22:33;6.77;;;2.87;;
5191;SDS011;2615;44.524;11.284;2022-07-06T05:25:10;5.13;;;2.77;;
5191;SDS011;2615;44.524;11.284;2022-07-06T05:27:39;4.80;;;2.33;;
5191;SDS011;2615;44.524;11.284;2022-07-06T05:30:07;6.87;;;3.10;;
5191;SDS011;2615;44.524;11.284;2022-07-06T05:32:36;4.27;;;2.60;;
5191;SDS011;2615;44.524;11.284;2022-07-06T05:35:07;8.90;;;3.07;;
5191;SDS011;2615;44.524;11.284;2022-07-06T05:37:55;4.50;;;2.93;;
5191;SDS011;2615;44.524;11.284;2022-07-06T05:40:23;6.07;;;2.87;;
5191;SDS011;2615;44.524;11.284;2022-07-06T05:42:52;8.93;;;3.83;;
5191;SDS011;2615;44.524;11.284;2022-07-06T05:45:20;6.07;;;2.57;;
5191;SDS011;2615;44.524;11.284;2022-07-06T05:47:48;20.63;;;3.50;;
5191;SDS011;2615;44.524;11.284;2022-07-06T05:50:35;6.77;;;3.00;;
5191;SDS011;2615;44.524;11.284;2022-07-06T05:53:04;6.93;;;2.77;;
5191;SDS011;2615;44.524;11.284;2022-07-06T05:55:44;8.83;;;2.53;;
5191;SDS011;2615;44.524;11.284;2022-07-06T05:58:12;6.70;;;2.87;;
5191;SDS011;2615;44.524;11.284;2022-07-06T06:00:41;7.87;;;3.00;;
5191;SDS011;2615;44.524;11.284;2022-07-06T06:03:09;4.60;;;2.63;;
5191;SDS011;2615;44.524;11.284;2022-07-06T06:05:39;4.17;;;2.47;;
5191;SDS011;2615;44.524;11.284;2022-07-06T06:08:07;10.63;;;2.80;;
5191;SDS011;2615;44.524;11.284;2022-07-06T06:10:35;4.33;;;2.30;;
5191;SDS011;2615;44.524;11.284;2022-07-06T06:13:04;9.30;;;2.53;;
5191;SDS011;2615;44.524;11.284;2022-07-06T06:15:32;5.63;;;2.30;;
5191;SDS011;2615;44.524;11.284;2022-07-06T06:18:01;3.30;;;2.23;;
5191;SDS011;2615;44.524;11.284;2022-07-06T06:20:30;8.50;;;3.27;;
5191;SDS011;2615;44.524;11.284;2022-07-06T06:23:00;16.53;;;2.70;;
5191;SDS011;2615;44.524;11.284;2022-07-06T06:25:31;4.10;;;2.63;;
5191;SDS011;2615;44.524;11.284;2022-07-06T06:28:00;7.60;;;2.10;;
5191;SDS011;2615;44.524;11.284;2022-07-06T06:30:28;7.10;;;1.80;;
5191;SDS011;2615;44.524;11.284;2022-07-06T06:33:10;3.60;;;2.30;;
5191;SDS011;2615;44.524;11.284;2022-07-06T06:35:41;6.07;;;2.53;;
5191;SDS011;2615;44.524;11.284;2022-07-06T06:38:12;6.27;;;2.40;;
5191;SDS011;2615;44.524;11.284;2022-07-06T06:40:41;6.50;;;2.27;;
5191;SDS011;2615;44.524;11.284;2022-07-06T06:43:09;17.43;;;2.63;;
5191;SDS011;2615;44.524;11.284;2022-07-06T06:45:38;5.73;;;2.10;;
5191;SDS011;2615;44.524;11.284;2022-07-06T06:48:07;4.27;;;2.00;;
5191;SDS011;2615;44.524;11.284;2022-07-06T06:50:42;9.63;;;2.60;;
5191;SDS011;2615;44.524;11.284;2022-07-06T06:53:11;4.97;;;2.00;;
5191;SDS011;2615;44.524;11.284;2022-07-06T06:55:40;4.73;;;2.10;;
5191;SDS011;2615;44.524;11.284;2022-07-06T06:58:08;4.50;;;1.97;;
5191;SDS011;2615;44.524;11.284;2022-07-06T07:00:36;4.27;;;1.90;;
5191;SDS011;2615;44.524;11.284;2022-07-06T07:03:04;7.70;;;2.10;;
5191;SDS011;2615;44.524;11.284;2022-07-06T07:05:32;8.80;;;2.50;;
5191;SDS011;2615;44.524;11.284;2022-07-06T07:08:01;8.80;;;2.27;;
5191;SDS011;2615;44.524;11.284;2022-07-06T07:10:32;5.77;;;1.93;;
5191;SDS011;2615;44.524;11.284;2022-07-06T07:13:00;6.63;;;2.87;;
5191;SDS011;2615;44.524;11.284;2022-07-06T07:15:28;6.63;;;2.37;;
5191;SDS011;2615;44.524;11.284;2022-07-06T07:17:56;10.23;;;3.00;;
5191;SDS011;2615;44.524;11.284;2022-07-06T07:20:24;9.90;;;2.70;;
5191;SDS011;2615;44.524;11.284;2022-07-06T07:22:56;6.97;;;3.50;;
5191;SDS011;2615;44.524;11.284;2022-07-06T07:25:24;8.53;;;2.50;;
5191;SDS011;2615;44.524;11.284;2022-07-06T07:27:54;6.00;;;2.87;;
5191;SDS011;2615;44.524;11.284;2022-07-06T07:30:22;4.23;;;2.10;;
5191;SDS011;2615;44.524;11.284;2022-07-06T07:32:50;8.60;;;2.63;;
5191;SDS011;2615;44.524;11.284;2022-07-06T07:35:18;11.83;;;2.77;;
5191;SDS011;2615;44.524;11.284;2022-07-06T07:37:46;6.13;;;2.40;;
5191;SDS011;2615;44.524;11.284;2022-07-06T07:40:14;7.53;;;2.43;;
5191;SDS011;2615;44.524;11.284;2022-07-06T07:42:43;7.10;;;2.20;;
5191;SDS011;2615;44.524;11.284;2022-07-06T07:45:12;7.73;;;2.20;;
5191;SDS011;2615;44.524;11.284;2022-07-06T07:47:41;7.27;;;2.20;;
5191;SDS011;2615;44.524;11.284;2022-07-06T07:50:09;4.90;;;2.10;;
5191;SDS011;2615;44.524;11.284;2022-07-06T07:52:38;10.23;;;3.17;;
5191;SDS011;2615;44.524;11.284;2022-07-06T07:55:07;12.30;;;3.33;;
5191;SDS011;2615;44.524;11.284;2022-07-06T07:57:55;6.97;;;2.30;;
5191;SDS011;2615;44.524;11.284;2022-07-06T08:00:25;20.67;;;4.00;;
5191;SDS011;2615;44.524;11.284;2022-07-06T08:02:54;8.07;;;3.10;;
5191;SDS011;2615;44.524;11.284;2022-07-06T08:05:23;9.27;;;2.80;;
5191;SDS011;2615;44.524;11.284;2022-07-06T08:07:51;7.13;;;3.30;;
5191;SDS011;2615;44.524;11.284;2022-07-06T08:10:19;6.67;;;2.77;;
5191;SDS011;2615;44.524;11.284;2022-07-06T08:12:48;7.13;;;3.10;;
5191;SDS011;2615;44.524;11.284;2022-07-06T08:15:16;8.23;;;2.87;;
5191;SDS011;2615;44.524;11.284;2022-07-06T08:17:46;7.10;;;2.67;;
5191;SDS011;2615;44.524;11.284;2022-07-06T08:20:14;10.90;;;2.83;;
5191;SDS011;2615;44.524;11.284;2022-07-06T08:22:42;12.83;;;2.87;;
5191;SDS011;2615;44.524;11.284;2022-07-06T08:25:11;5.40;;;3.30;;
5191;SDS011;2615;44.524;11.284;2022-07-06T08:27:39;8.03;;;2.70;;
5191;SDS011;2615;44.524;11.284;2022-07-06T08:30:08;9.40;;;2.90;;
5191;SDS011;2615;44.524;11.284;2022-07-06T08:32:38;6.00;;;2.60;;
5191;SDS011;2615;44.524;11.284;2022-07-06T08:35:28;12.13;;;2.77;;
5191;SDS011;2615;44.524;11.284;2022-07-06T08:37:57;9.53;;;2.50;;
5191;SDS011;2615;44.524;11.284;2022-07-06T08:40:25;9.27;;;2.50;;
5191;SDS011;2615;44.524;11.284;2022-07-06T08:42:58;5.40;;;2.80;;
5191;SDS011;2615;44.524;11.284;2022-07-06T08:45:27;8.33;;;3.20;;
5191;SDS011;2615;44.524;11.284;2022-07-06T08:47:56;13.83;;;2.47;;
5191;SDS011;2615;44.524;11.284;2022-07-06T08:50:32;5.30;;;3.00;;
5191;SDS011;2615;44.524;11.284;2022-07-06T08:53:01;7.03;;;2.93;;
5191;SDS011;2615;44.524;11.284;2022-07-06T08:55:29;5.77;;;2.60;;
5191;SDS011;2615;44.524;11.284;2022-07-06T08:57:58;9.10;;;3.10;;
5191;SDS011;2615;44.524;11.284;2022-07-06T09:00:26;12.77;;;3.20;;
5191;SDS011;2615;44.524;11.284;2022-07-06T09:02:54;6.07;;;3.17;;
5191;SDS011;2615;44.524;11.284;2022-07-06T09:05:24;5.60;;;3.20;;
5191;SDS011;2615;44.524;11.284;2022-07-06T09:07:53;5.97;;;2.70;;
5191;SDS011;2615;44.524;11.284;2022-07-06T09:10:25;8.80;;;3.23;;
5191;SDS011;2615;44.524;11.284;2022-07-06T09:12:55;7.90;;;3.27;;
5191;SDS011;2615;44.524;11.284;2022-07-06T09:15:29;7.40;;;2.90;;
5191;SDS011;2615;44.524;11.284;2022-07-06T09:17:58;10.20;;;3.03;;
5191;SDS011;2615;44.524;11.284;2022-07-06T09:20:26;6.70;;;3.00;;
5191;SDS011;2615;44.524;11.284;2022-07-06T09:22:58;6.77;;;3.40;;
5191;SDS011;2615;44.524;11.284;2022-07-06T09:25:27;7.40;;;2.90;;
5191;SDS011;2615;44.524;11.284;2022-07-06T09:27:56;7.50;;;3.43;;
5191;SDS011;2615;44.524;11.284;2022-07-06T09:30:26;4.53;;;3.20;;
5191;SDS011;2615;44.524;11.284;2022-07-06T09:32:55;6.00;;;3.20;;
5191;SDS011;2615;44.524;11.284;2022-07-06T09:35:25;7.50;;;3.97;;
5191;SDS011;2615;44.524;11.284;2022-07-06T09:38:05;5.57;;;3.90;;
5191;SDS011;2615;44.524;11.284;2022-07-06T09:40:35;10.13;;;3.10;;
5191;SDS011;2615;44.524;11.284;2022-07-06T09:43:11;11.00;;;3.30;;
5191;SDS011;2615;44.524;11.284;2022-07-06T09:45:41;7.27;;;3.37;;
5191;SDS011;2615;44.524;11.284;2022-07-06T09:48:11;8.20;;;3.60;;
5191;SDS011;2615;44.524;11.284;2022-07-06T09:50:42;5.67;;;3.70;;
5191;SDS011;2615;44.524;11.284;2022-07-06T09:53:13;10.60;;;3.47;;
5191;SDS011;2615;44.524;11.284;2022-07-06T09:55:44;7.03;;;3.23;;
5191;SDS011;2615;44.524;11.284;2022-07-06T09:58:13;8.20;;;3.90;;
5191;SDS011;2615;44.524;11.284;2022-07-06T10:00:42;8.57;;;3.90;;
5191;SDS011;2615;44.524;11.284;2022-07-06T10:03:10;10.50;;;4.60;;
5191;SDS011;2615;44.524;11.284;2022-07-06T10:05:39;8.53;;;3.47;;
5191;SDS011;2615;44.524;11.284;2022-07-06T10:08:09;8.40;;;3.73;;
5191;SDS011;2615;44.524;11.284;2022-07-06T10:10:39;10.87;;;3.40;;
5191;SDS011;2615;44.524;11.284;2022-07-06T10:13:09;6.37;;;3.27;;
5191;SDS011;2615;44.524;11.284;2022-07-06T10:15:38;14.53;;;3.87;;
5191;SDS011;2615;44.524;11.284;2022-07-06T10:18:07;6.50;;;3.80;;
5191;SDS011;2615;44.524;11.284;2022-07-06T10:20:37;6.07;;;3.70;;
5191;SDS011;2615;44.524;11.284;2022-07-06T10:23:07;5.33;;;2.77;;
5191;SDS011;2615;44.524;11.284;2022-07-06T10:25:36;5.20;;;3.20;;
5191;SDS011;2615;44.524;11.284;2022-07-06T10:28:06;7.27;;;3.30;;
5191;SDS011;2615;44.524;11.284;2022-07-06T10:30:41;5.80;;;3.40;;
5191;SDS011;2615;44.524;11.284;2022-07-06T10:33:10;6.30;;;3.13;;
5191;SDS011;2615;44.524;11.284;2022-07-06T10:35:41;7.20;;;3.80;;
5191;SDS011;2615;44.524;11.284;2022-07-06T10:38:11;7.80;;;3.57;;
5191;SDS011;2615;44.524;11.284;2022-07-06T10:40:40;5.40;;;3.10;;
5191;SDS011;2615;44.524;11.284;2022-07-06T10:43:32;11.13;;;4.00;;
5191;SDS011;2615;44.524;11.284;2022-07-06T10:46:07;7.20;;;3.90;;
5191;SDS011;2615;44.524;11.284;2022-07-06T10:48:38;8.60;;;3.70;;
5191;SDS011;2615;44.524;11.284;2022-07-06T10:51:08;15.80;;;4.20;;
5191;SDS011;2615;44.524;11.284;2022-07-06T10:53:38;9.03;;;3.00;;
5191;SDS011;2615;44.524;11.284;2022-07-06T10:56:08;8.17;;;3.77;;
5191;SDS011;2615;44.524;11.284;2022-07-06T10:58:39;8.80;;;3.53;;
5191;SDS011;2615;44.524;11.284;2022-07-06T11:01:09;6.73;;;3.40;;
5191;SDS011;2615;44.524;11.284;2022-07-06T11:03:39;7.10;;;3.10;;
5191;SDS011;2615;44.524;11.284;2022-07-06T11:06:10;5.43;;;2.77;;
5191;SDS011;2615;44.524;11.284;2022-07-06T11:08:44;4.57;;;2.70;;
5191;SDS011;2615;44.524;11.284;2022-07-06T11:11:14;5.53;;;2.77;;
5191;SDS011;2615;44.524;11.284;2022-07-06T11:13:48;6.20;;;2.63;;
5191;SDS011;2615;44.524;11.284;2022-07-06T11:16:21;4.00;;;2.70;;
5191;SDS011;2615;44.524;11.284;2022-07-06T11:19:03;6.37;;;2.73;;
5191;SDS011;2615;44.524;11.284;2022-07-06T11:21:34;6.20;;;2.40;;
5191;SDS011;2615;44.524;11.284;2022-07-06T11:24:04;5.30;;;2.40;;
5191;SDS011;2615;44.524;11.284;2022-07-06T11:26:34;10.13;;;3.90;;
5191;SDS011;2615;44.524;11.284;2022-07-06T11:29:08;4.73;;;2.47;;
5191;SDS011;2615;44.524;11.284;2022-07-06T11:31:38;5.63;;;2.40;;
5191;SDS011;2615;44.524;11.284;2022-07-06T11:34:09;3.97;;;2.90;;
5191;SDS011;2615;44.524;11.284;2022-07-06T11:36:39;3.23;;;2.30;;
5191;SDS011;2615;44.524;11.284;2022-07-06T11:39:11;4.50;;;2.43;;
5191;SDS011;2615;44.524;11.284;2022-07-06T11:41:40;4.30;;;2.70;;
5191;SDS011;2615;44.524;11.284;2022-07-06T11:44:17;6.63;;;2.70;;
5191;SDS011;2615;44.524;11.284;2022-07-06T11:46:46;9.33;;;3.10;;
5191;SDS011;2615;44.524;11.284;2022-07-06T11:49:14;4.30;;;2.47;;
5191;SDS011;2615;44.524;11.284;2022-07-06T11:51:44;5.23;;;3.60;;
5191;SDS011;2615;44.524;11.284;2022-07-06T11:54:13;4.53;;;2.77;;
5191;SDS011;2615;44.524;11.284;2022-07-06T11:56:45;10.53;;;2.97;;
5191;SDS011;2615;44.524;11.284;2022-07-06T11:59:19;4.00;;;2.40;;
5191;SDS011;2615;44.524;11.284;2022-07-06T12:01:56;4.03;;;2.43;;
5191;SDS011;2615;44.524;11.284;2022-07-06T12:04:26;4.53;;;3.07;;
5191;SDS011;2615;44.524;11.284;2022-07-06T12:06:55;5.00;;;2.97;;
5191;SDS011;2615;44.524;11.284;2022-07-06T12:09:29;4.50;;;2.70;;
5191;SDS011;2615;44.524;11.284;2022-07-06T12:11:58;4.70;;;2.30;;
5191;SDS011;2615;44.524;11.284;2022-07-06T12:14:30;5.53;;;2.90;;
5191;SDS011;2615;44.524;11.284;2022-07-06T12:17:02;7.03;;;2.60;;
5191;SDS011;2615;44.524;11.284;2022-07-06T12:19:36;3.97;;;2.40;;
5191;SDS011;2615;44.524;11.284;2022-07-06T12:22:07;2.90;;;2.33;;
5191;SDS011;2615;44.524;11.284;2022-07-06T12:24:36;3.93;;;2.60;;
5191;SDS011;2615;44.524;11.284;2022-07-06T12:27:10;5.23;;;2.90;;
5191;SDS011;2615;44.524;11.284;2022-07-06T12:29:40;4.60;;;2.37;;
5191;SDS011;2615;44.524;11.284;2022-07-06T12:32:13;4.50;;;2.50;;
5191;SDS011;2615;44.524;11.284;2022-07-06T12:34:42;8.17;;;3.10;;
5191;SDS011;2615;44.524;11.284;2022-07-06T12:37:11;8.60;;;3.13;;
5191;SDS011;2615;44.524;11.284;2022-07-06T12:39:40;4.90;;;2.60;;
5191;SDS011;2615;44.524;11.284;2022-07-06T12:42:10;2.97;;;2.50;;
5191;SDS011;2615;44.524;11.284;2022-07-06T12:44:47;7.60;;;2.70;;
5191;SDS011;2615;44.524;11.284;2022-07-06T12:47:17;7.13;;;2.73;;
5191;SDS011;2615;44.524;11.284;2022-07-06T12:49:47;3.90;;;2.67;;
5191;SDS011;2615;44.524;11.284;2022-07-06T12:52:15;3.10;;;2.50;;
5191;SDS011;2615;44.524;11.284;2022-07-06T12:54:44;3.93;;;2.77;;
5191;SDS011;2615;44.524;11.284;2022-07-06T12:57:14;4.77;;;2.60;;
5191;SDS011;2615;44.524;11.284;2022-07-06T12:59:44;7.50;;;3.17;;
5191;SDS011;2615;44.524;11.284;2022-07-06T13:02:19;3.10;;;2.47;;
5191;SDS011;2615;44.524;11.284;2022-07-06T13:05:10;4.90;;;2.90;;
5191;SDS011;2615;44.524;11.284;2022-07-06T13:07:43;6.93;;;2.97;;
5191;SDS011;2615;44.524;11.284;2022-07-06T13:10:13;7.47;;;3.10;;
5191;SDS011;2615;44.524;11.284;2022-07-06T13:12:42;4.63;;;3.20;;
5191;SDS011;2615;44.524;11.284;2022-07-06T13:15:12;5.20;;;3.23;;
5191;SDS011;2615;44.524;11.284;2022-07-06T13:17:41;7.77;;;3.10;;
5191;SDS011;2615;44.524;11.284;2022-07-06T13:20:09;8.73;;;3.50;;
5191;SDS011;2615;44.524;11.284;2022-07-06T13:22:39;8.73;;;3.33;;
5191;SDS011;2615;44.524;11.284;2022-07-06T13:25:07;5.33;;;4.10;;
5191;SDS011;2615;44.524;11.284;2022-07-06T13:27:36;6.33;;;3.60;;
5191;SDS011;2615;44.524;11.284;2022-07-06T13:30:04;6.40;;;3.70;;
5191;SDS011;2615;44.524;11.284;2022-07-06T13:32:34;4.57;;;3.67;;
5191;SDS011;2615;44.524;11.284;2022-07-06T13:35:02;8.20;;;4.50;;
5191;SDS011;2615;44.524;11.284;2022-07-06T13:37:31;6.70;;;3.43;;
5191;SDS011;2615;44.524;11.284;2022-07-06T13:39:59;11.03;;;3.50;;
5191;SDS011;2615;44.524;11.284;2022-07-06T13:42:27;7.17;;;3.30;;
5191;SDS011;2615;44.524;11.284;2022-07-06T13:44:56;6.10;;;3.80;;
5191;SDS011;2615;44.524;11.284;2022-07-06T13:47:24;5.47;;;2.80;;
5191;SDS011;2615;44.524;11.284;2022-07-06T13:49:53;14.03;;;4.10;;
5191;SDS011;2615;44.524;11.284;2022-07-06T13:52:21;4.47;;;2.90;;
5191;SDS011;2615;44.524;11.284;2022-07-06T13:54:50;8.10;;;2.80;;
5191;SDS011;2615;44.524;11.284;2022-07-06T13:57:26;7.87;;;2.80;;
5191;SDS011;2615;44.524;11.284;2022-07-06T13:59:54;4.83;;;2.60;;
5191;SDS011;2615;44.524;11.284;2022-07-06T14:02:22;9.67;;;3.47;;
5191;SDS011;2615;44.524;11.284;2022-07-06T14:04:51;4.87;;;2.90;;
5191;SDS011;2615;44.524;11.284;2022-07-06T14:07:20;5.73;;;2.67;;
5191;SDS011;2615;44.524;11.284;2022-07-06T14:09:49;11.53;;;3.10;;
5191;SDS011;2615;44.524;11.284;2022-07-06T14:12:18;7.00;;;2.43;;
5191;SDS011;2615;44.524;11.284;2022-07-06T14:14:49;3.47;;;2.40;;
5191;SDS011;2615;44.524;11.284;2022-07-06T14:17:18;6.10;;;3.27;;
5191;SDS011;2615;44.524;11.284;2022-07-06T14:19:46;4.97;;;2.80;;
5191;SDS011;2615;44.524;11.284;2022-07-06T14:22:15;6.37;;;2.73;;
5191;SDS011;2615;44.524;11.284;2022-07-06T14:24:45;5.10;;;2.87;;
5191;SDS011;2615;44.524;11.284;2022-07-06T14:27:13;5.23;;;3.03;;
5191;SDS011;2615;44.524;11.284;2022-07-06T14:29:41;6.90;;;2.20;;
5191;SDS011;2615;44.524;11.284;2022-07-06T14:32:10;4.30;;;2.77;;
5191;SDS011;2615;44.524;11.284;2022-07-06T14:34:38;3.80;;;2.80;;
5191;SDS011;2615;44.524;11.284;2022-07-06T14:37:06;5.90;;;2.87;;
5191;SDS011;2615;44.524;11.284;2022-07-06T14:39:34;8.37;;;2.60;;
5191;SDS011;2615;44.524;11.284;2022-07-06T14:42:04;4.07;;;2.30;;
5191;SDS011;2615;44.524;11.284;2022-07-06T14:44:33;4.90;;;2.47;;
5191;SDS011;2615;44.524;11.284;2022-07-06T14:47:01;8.10;;;2.67;;
5191;SDS011;2615;44.524;11.284;2022-07-06T14:49:29;2.97;;;2.10;;
5191;SDS011;2615;44.524;11.284;2022-07-06T14:51:58;4.47;;;2.43;;
5191;SDS011;2615;44.524;11.284;2022-07-06T14:54:26;5.30;;;2.27;;
5191;SDS011;2615;44.524;11.284;2022-07-06T14:56:54;6.77;;;2.60;;
5191;SDS011;2615;44.524;11.284;2022-07-06T14:59:23;6.67;;;2.33;;
5191;SDS011;2615;44.524;11.284;2022-07-06T15:01:52;5.83;;;2.73;;
5191;SDS011;2615;44.524;11.284;2022-07-06T15:04:21;2.70;;;2.00;;
5191;SDS011;2615;44.524;11.284;2022-07-06T15:06:49;8.53;;;2.20;;
5191;SDS011;2615;44.524;11.284;2022-07-06T15:09:21;3.70;;;1.97;;
5191;SDS011;2615;44.524;11.284;2022-07-06T15:11:50;6.83;;;1.93;;
5191;SDS011;2615;44.524;11.284;2022-07-06T15:14:19;3.27;;;1.90;;